sensor_id;sensor_type;location;lat;lon;timestamp;temperature;humidity
38183;DHT22;23991;52.430;10.586;2022-11-15T00:00:26;8.20;79.00
38183;DHT22;23991;52.430;10.586;2022-11-15T00:02:52;8.10;79.00
38183;DHT22;23991;52.430;10.586;2022-11-15T00:05:18;8.20;79.10
38183;DHT22;23991;52.430;10.586;2022-11-15T00:07:44;8.10;79.30
38183;DHT22;23991;52.430;10.586;2022-11-15T00:10:10;8.10;79.30
38183;DHT22;23991;52.430;10.586;2022-11-15T00:12:35;8.10;79.50
38183;DHT22;23991;52.430;10.586;2022-11-15T00:15:01;8.10;79.60
38183;DHT22;23991;52.430;10.586;2022-11-15T00:17:27;8.10;79.80
38183;DHT22;23991;52.430;10.586;2022-11-15T00:19:52;8.10;79.80
38183;DHT22;23991;52.430;10.586;2022-11-15T00:22:18;8.00;79.80
38183;DHT22;23991;52.430;10.586;2022-11-15T00:24:43;8.10;79.70
38183;DHT22;23991;52.430;10.586;2022-11-15T00:27:09;8.10;79.70
38183;DHT22;23991;52.430;10.586;2022-11-15T00:29:34;8.00;79.60
38183;DHT22;23991;52.430;10.586;2022-11-15T00:32:02;8.00;79.50
38183;DHT22;23991;52.430;10.586;2022-11-15T00:34:28;8.00;79.50
38183;DHT22;23991;52.430;10.586;2022-11-15T00:36:53;8.00;79.50
38183;DHT22;23991;52.430;10.586;2022-11-15T00:39:22;8.00;79.40
38183;DHT22;23991;52.430;10.586;2022-11-15T00:41:47;7.90;79.40
38183;DHT22;23991;52.430;10.586;2022-11-15T00:44:13;7.90;79.40
38183;DHT22;23991;52.430;10.586;2022-11-15T00:46:39;7.90;79.40
38183;DHT22;23991;52.430;10.586;2022-11-15T00:49:04;7.90;79.30
38183;DHT22;23991;52.430;10.586;2022-11-15T00:51:30;7.90;79.30
38183;DHT22;23991;52.430;10.586;2022-11-15T00:53:55;7.90;79.40
38183;DHT22;23991;52.430;10.586;2022-11-15T00:56:21;7.80;79.20
38183;DHT22;23991;52.430;10.586;2022-11-15T00:58:46;7.80;79.00
38183;DHT22;23991;52.430;10.586;2022-11-15T01:01:14;7.80;79.10
38183;DHT22;23991;52.430;10.586;2022-11-15T01:03:40;7.80;79.10
38183;DHT22;23991;52.430;10.586;2022-11-15T01:06:07;7.70;79.20
38183;DHT22;23991;52.430;10.586;2022-11-15T01:08:34;7.70;79.20
38183;DHT22;23991;52.430;10.586;2022-11-15T01:11:01;7.70;79.00
38183;DHT22;23991;52.430;10.586;2022-11-15T01:13:33;7.60;79.00
38183;DHT22;23991;52.430;10.586;2022-11-15T01:16:04;7.60;79.10
38183;DHT22;23991;52.430;10.586;2022-11-15T01:18:30;7.60;79.20
38183;DHT22;23991;52.430;10.586;2022-11-15T01:20:56;7.60;79.10
38183;DHT22;23991;52.430;10.586;2022-11-15T01:23:21;7.60;79.30
38183;DHT22;23991;52.430;10.586;2022-11-15T01:25:47;7.60;79.50
38183;DHT22;23991;52.430;10.586;2022-11-15T01:28:12;7.60;79.40
38183;DHT22;23991;52.430;10.586;2022-11-15T01:30:38;7.50;79.40
38183;DHT22;23991;52.430;10.586;2022-11-15T01:33:03;7.50;79.20
38183;DHT22;23991;52.430;10.586;2022-11-15T01:35:29;7.40;79.40
38183;DHT22;23991;52.430;10.586;2022-11-15T01:37:55;7.40;79.70
38183;DHT22;23991;52.430;10.586;2022-11-15T01:40:20;7.40;79.70
38183;DHT22;23991;52.430;10.586;2022-11-15T01:42:46;7.40;79.70
38183;DHT22;23991;52.430;10.586;2022-11-15T01:45:14;7.40;79.70
38183;DHT22;23991;52.430;10.586;2022-11-15T01:47:48;7.40;79.90
38183;DHT22;23991;52.430;10.586;2022-11-15T01:50:21;7.40;80.00
38183;DHT22;23991;52.430;10.586;2022-11-15T01:52:47;7.30;80.00
38183;DHT22;23991;52.430;10.586;2022-11-15T01:55:23;7.30;79.80
38183;DHT22;23991;52.430;10.586;2022-11-15T01:57:53;7.30;79.90
38183;DHT22;23991;52.430;10.586;2022-11-15T02:00:19;7.30;79.80
38183;DHT22;23991;52.430;10.586;2022-11-15T02:02:44;7.30;80.10
38183;DHT22;23991;52.430;10.586;2022-11-15T02:05:10;7.30;80.00
38183;DHT22;23991;52.430;10.586;2022-11-15T02:07:36;7.30;80.00
38183;DHT22;23991;52.430;10.586;2022-11-15T02:10:17;7.30;80.00
38183;DHT22;23991;52.430;10.586;2022-11-15T02:12:43;7.20;79.70
38183;DHT22;23991;52.430;10.586;2022-11-15T02:15:10;7.20;79.70
38183;DHT22;23991;52.430;10.586;2022-11-15T02:20:20;7.20;79.90
38183;DHT22;23991;52.430;10.586;2022-11-15T02:36:57;7.00;80.30
38183;DHT22;23991;52.430;10.586;2022-11-15T02:42:11;7.10;80.30
38183;DHT22;23991;52.430;10.586;2022-11-15T02:45:01;7.00;80.10
38183;DHT22;23991;52.430;10.586;2022-11-15T02:47:30;7.00;80.40
38183;DHT22;23991;52.430;10.586;2022-11-15T02:50:09;7.00;80.40
38183;DHT22;23991;52.430;10.586;2022-11-15T02:52:36;6.90;80.50
38183;DHT22;23991;52.430;10.586;2022-11-15T02:55:04;6.90;80.50
38183;DHT22;23991;52.430;10.586;2022-11-15T02:57:45;6.90;80.30
38183;DHT22;23991;52.430;10.586;2022-11-15T03:00:18;6.90;80.10
38183;DHT22;23991;52.430;10.586;2022-11-15T03:05:44;6.80;79.90
38183;DHT22;23991;52.430;10.586;2022-11-15T03:08:17;6.80;80.00
38183;DHT22;23991;52.430;10.586;2022-11-15T03:11:09;6.80;80.10
38183;DHT22;23991;52.430;10.586;2022-11-15T03:22:07;6.80;80.40
38183;DHT22;23991;52.430;10.586;2022-11-15T03:24:36;6.80;80.70
38183;DHT22;23991;52.430;10.586;2022-11-15T03:27:05;6.80;80.80
38183;DHT22;23991;52.430;10.586;2022-11-15T03:29:43;6.80;81.00
38183;DHT22;23991;52.430;10.586;2022-11-15T03:32:13;6.80;81.30
38183;DHT22;23991;52.430;10.586;2022-11-15T03:34:43;6.80;81.40
38183;DHT22;23991;52.430;10.586;2022-11-15T03:37:10;6.80;81.30
38183;DHT22;23991;52.430;10.586;2022-11-15T03:39:36;6.80;81.30
38183;DHT22;23991;52.430;10.586;2022-11-15T03:42:20;6.80;81.60
38183;DHT22;23991;52.430;10.586;2022-11-15T03:44:55;6.80;81.70
38183;DHT22;23991;52.430;10.586;2022-11-15T03:47:36;6.80;82.10
38183;DHT22;23991;52.430;10.586;2022-11-15T03:50:13;6.80;82.30
38183;DHT22;23991;52.430;10.586;2022-11-15T03:52:40;6.80;82.40
38183;DHT22;23991;52.430;10.586;2022-11-15T03:55:10;6.90;82.60
38183;DHT22;23991;52.430;10.586;2022-11-15T03:57:36;6.90;82.80
38183;DHT22;23991;52.430;10.586;2022-11-15T04:00:03;6.90;83.00
38183;DHT22;23991;52.430;10.586;2022-11-15T04:02:29;6.90;83.10
38183;DHT22;23991;52.430;10.586;2022-11-15T04:04:54;6.90;83.20
38183;DHT22;23991;52.430;10.586;2022-11-15T04:07:20;6.90;83.20
38183;DHT22;23991;52.430;10.586;2022-11-15T04:09:45;6.90;83.30
38183;DHT22;23991;52.430;10.586;2022-11-15T04:12:42;6.90;83.30
38183;DHT22;23991;52.430;10.586;2022-11-15T04:15:17;6.90;83.30
38183;DHT22;23991;52.430;10.586;2022-11-15T04:17:51;6.90;83.30
38183;DHT22;23991;52.430;10.586;2022-11-15T04:20:21;6.90;83.20
38183;DHT22;23991;52.430;10.586;2022-11-15T04:23:09;6.90;83.10
38183;DHT22;23991;52.430;10.586;2022-11-15T04:25:55;6.80;82.90
38183;DHT22;23991;52.430;10.586;2022-11-15T04:28:22;6.90;83.10
38183;DHT22;23991;52.430;10.586;2022-11-15T04:30:48;6.90;83.00
38183;DHT22;23991;52.430;10.586;2022-11-15T04:33:14;6.80;83.10
38183;DHT22;23991;52.430;10.586;2022-11-15T04:35:39;6.80;83.10
38183;DHT22;23991;52.430;10.586;2022-11-15T04:38:07;6.80;83.10
38183;DHT22;23991;52.430;10.586;2022-11-15T04:40:33;6.80;83.10
38183;DHT22;23991;52.430;10.586;2022-11-15T04:42:58;6.80;83.00
38183;DHT22;23991;52.430;10.586;2022-11-15T04:45:24;6.80;83.00
38183;DHT22;23991;52.430;10.586;2022-11-15T04:47:50;6.70;82.90
38183;DHT22;23991;52.430;10.586;2022-11-15T04:50:19;6.70;82.60
38183;DHT22;23991;52.430;10.586;2022-11-15T04:52:51;6.70;82.50
38183;DHT22;23991;52.430;10.586;2022-11-15T04:55:17;6.60;82.40
38183;DHT22;23991;52.430;10.586;2022-11-15T04:57:42;6.60;82.30
38183;DHT22;23991;52.430;10.586;2022-11-15T05:00:10;6.60;82.60
38183;DHT22;23991;52.430;10.586;2022-11-15T05:02:36;6.60;83.00
38183;DHT22;23991;52.430;10.586;2022-11-15T05:05:20;6.70;83.00
38183;DHT22;23991;52.430;10.586;2022-11-15T05:07:46;6.60;83.10
38183;DHT22;23991;52.430;10.586;2022-11-15T05:10:12;6.60;83.10
38183;DHT22;23991;52.430;10.586;2022-11-15T05:12:37;6.60;83.10
38183;DHT22;23991;52.430;10.586;2022-11-15T05:15:03;6.60;82.90
38183;DHT22;23991;52.430;10.586;2022-11-15T05:17:29;6.50;82.70
38183;DHT22;23991;52.430;10.586;2022-11-15T05:19:55;6.50;82.80
38183;DHT22;23991;52.430;10.586;2022-11-15T05:22:21;6.50;82.80
38183;DHT22;23991;52.430;10.586;2022-11-15T05:24:46;6.40;82.80
38183;DHT22;23991;52.430;10.586;2022-11-15T05:27:12;6.50;83.00
38183;DHT22;23991;52.430;10.586;2022-11-15T05:29:37;6.50;83.20
38183;DHT22;23991;52.430;10.586;2022-11-15T05:32:05;6.50;83.40
38183;DHT22;23991;52.430;10.586;2022-11-15T05:34:31;6.50;83.50
38183;DHT22;23991;52.430;10.586;2022-11-15T05:36:57;6.50;83.50
38183;DHT22;23991;52.430;10.586;2022-11-15T05:39:24;6.50;83.50
38183;DHT22;23991;52.430;10.586;2022-11-15T05:41:57;6.50;83.60
38183;DHT22;23991;52.430;10.586;2022-11-15T05:44:25;6.50;83.70
38183;DHT22;23991;52.430;10.586;2022-11-15T05:46:53;6.50;83.70
38183;DHT22;23991;52.430;10.586;2022-11-15T05:49:23;6.50;83.70
38183;DHT22;23991;52.430;10.586;2022-11-15T05:51:51;6.50;83.70
38183;DHT22;23991;52.430;10.586;2022-11-15T05:54:19;6.50;83.80
38183;DHT22;23991;52.430;10.586;2022-11-15T05:56:46;6.50;83.80
38183;DHT22;23991;52.430;10.586;2022-11-15T05:59:12;6.50;83.80
38183;DHT22;23991;52.430;10.586;2022-11-15T06:01:38;6.50;83.70
38183;DHT22;23991;52.430;10.586;2022-11-15T06:04:04;6.50;83.70
38183;DHT22;23991;52.430;10.586;2022-11-15T06:06:30;6.50;83.80
38183;DHT22;23991;52.430;10.586;2022-11-15T06:08:56;6.50;83.80
38183;DHT22;23991;52.430;10.586;2022-11-15T06:11:21;6.50;83.80
38183;DHT22;23991;52.430;10.586;2022-11-15T06:13:47;6.50;83.80
38183;DHT22;23991;52.430;10.586;2022-11-15T06:16:12;6.50;83.80
38183;DHT22;23991;52.430;10.586;2022-11-15T06:18:39;6.60;83.80
38183;DHT22;23991;52.430;10.586;2022-11-15T06:21:05;6.60;83.90
38183;DHT22;23991;52.430;10.586;2022-11-15T06:23:35;6.50;84.10
38183;DHT22;23991;52.430;10.586;2022-11-15T06:26:01;6.60;84.40
38183;DHT22;23991;52.430;10.586;2022-11-15T06:28:29;6.50;84.50
38183;DHT22;23991;52.430;10.586;2022-11-15T06:30:55;6.60;84.60
38183;DHT22;23991;52.430;10.586;2022-11-15T06:33:20;6.50;84.50
38183;DHT22;23991;52.430;10.586;2022-11-15T06:35:46;6.60;84.60
38183;DHT22;23991;52.430;10.586;2022-11-15T06:38:12;6.60;84.50
38183;DHT22;23991;52.430;10.586;2022-11-15T06:40:38;6.70;84.40
38183;DHT22;23991;52.430;10.586;2022-11-15T06:43:04;6.70;84.40
38183;DHT22;23991;52.430;10.586;2022-11-15T06:45:31;6.70;84.40
38183;DHT22;23991;52.430;10.586;2022-11-15T06:47:57;6.70;84.50
38183;DHT22;23991;52.430;10.586;2022-11-15T06:50:23;6.70;84.70
38183;DHT22;23991;52.430;10.586;2022-11-15T06:52:48;6.70;84.80
38183;DHT22;23991;52.430;10.586;2022-11-15T06:55:14;6.80;84.70
38183;DHT22;23991;52.430;10.586;2022-11-15T06:57:50;6.80;84.50
38183;DHT22;23991;52.430;10.586;2022-11-15T07:00:18;6.90;84.30
38183;DHT22;23991;52.430;10.586;2022-11-15T07:02:45;6.90;84.10
38183;DHT22;23991;52.430;10.586;2022-11-15T07:05:11;6.90;83.20
38183;DHT22;23991;52.430;10.586;2022-11-15T07:07:37;6.90;82.80
38183;DHT22;23991;52.430;10.586;2022-11-15T07:10:03;6.90;82.30
38183;DHT22;23991;52.430;10.586;2022-11-15T07:12:29;7.00;81.90
38183;DHT22;23991;52.430;10.586;2022-11-15T07:14:54;7.10;81.50
38183;DHT22;23991;52.430;10.586;2022-11-15T07:17:20;7.10;81.40
38183;DHT22;23991;52.430;10.586;2022-11-15T07:19:45;7.20;81.10
38183;DHT22;23991;52.430;10.586;2022-11-15T07:22:11;7.30;80.80
38183;DHT22;23991;52.430;10.586;2022-11-15T07:24:36;7.30;80.60
38183;DHT22;23991;52.430;10.586;2022-11-15T07:27:02;7.40;80.10
38183;DHT22;23991;52.430;10.586;2022-11-15T07:29:27;7.50;80.00
38183;DHT22;23991;52.430;10.586;2022-11-15T07:31:53;7.70;79.80
38183;DHT22;23991;52.430;10.586;2022-11-15T07:34:19;7.90;80.70
38183;DHT22;23991;52.430;10.586;2022-11-15T07:36:45;8.10;82.40
38183;DHT22;23991;52.430;10.586;2022-11-15T07:39:10;8.20;82.90
38183;DHT22;23991;52.430;10.586;2022-11-15T07:41:43;8.30;82.90
38183;DHT22;23991;52.430;10.586;2022-11-15T07:44:09;8.40;82.60
38183;DHT22;23991;52.430;10.586;2022-11-15T07:46:34;8.70;82.20
38183;DHT22;23991;52.430;10.586;2022-11-15T07:49:00;8.90;81.60
38183;DHT22;23991;52.430;10.586;2022-11-15T07:51:25;9.10;81.40
38183;DHT22;23991;52.430;10.586;2022-11-15T07:53:51;9.30;81.10
38183;DHT22;23991;52.430;10.586;2022-11-15T07:56:16;9.50;80.70
38183;DHT22;23991;52.430;10.586;2022-11-15T07:58:42;9.90;81.20
38183;DHT22;23991;52.430;10.586;2022-11-15T08:01:09;10.20;81.20
38183;DHT22;23991;52.430;10.586;2022-11-15T08:03:35;10.70;80.10
38183;DHT22;23991;52.430;10.586;2022-11-15T08:06:01;11.00;79.30
38183;DHT22;23991;52.430;10.586;2022-11-15T08:08:27;11.30;78.20
38183;DHT22;23991;52.430;10.586;2022-11-15T08:10:53;11.60;77.70
38183;DHT22;23991;52.430;10.586;2022-11-15T08:13:19;11.90;76.90
38183;DHT22;23991;52.430;10.586;2022-11-15T08:15:45;12.30;75.50
38183;DHT22;23991;52.430;10.586;2022-11-15T08:18:13;12.60;74.70
38183;DHT22;23991;52.430;10.586;2022-11-15T08:20:39;13.10;73.20
38183;DHT22;23991;52.430;10.586;2022-11-15T08:23:06;13.40;72.30
38183;DHT22;23991;52.430;10.586;2022-11-15T08:25:33;13.80;71.10
38183;DHT22;23991;52.430;10.586;2022-11-15T08:28:02;14.30;69.50
38183;DHT22;23991;52.430;10.586;2022-11-15T08:30:27;14.60;68.30
38183;DHT22;23991;52.430;10.586;2022-11-15T08:32:54;15.00;67.40
38183;DHT22;23991;52.430;10.586;2022-11-15T08:35:21;15.20;66.10
38183;DHT22;23991;52.430;10.586;2022-11-15T08:37:47;15.10;65.90
38183;DHT22;23991;52.430;10.586;2022-11-15T08:40:13;15.10;66.10
38183;DHT22;23991;52.430;10.586;2022-11-15T08:42:39;15.30;66.00
38183;DHT22;23991;52.430;10.586;2022-11-15T08:45:06;15.30;65.40
38183;DHT22;23991;52.430;10.586;2022-11-15T08:47:32;15.30;65.90
38183;DHT22;23991;52.430;10.586;2022-11-15T08:49:57;15.30;65.90
38183;DHT22;23991;52.430;10.586;2022-11-15T08:52:23;15.20;66.10
38183;DHT22;23991;52.430;10.586;2022-11-15T08:54:48;15.30;65.90
38183;DHT22;23991;52.430;10.586;2022-11-15T08:57:14;15.40;65.60
38183;DHT22;23991;52.430;10.586;2022-11-15T08:59:40;15.20;66.10
38183;DHT22;23991;52.430;10.586;2022-11-15T09:02:06;15.20;66.40
38183;DHT22;23991;52.430;10.586;2022-11-15T09:04:32;15.10;66.50
38183;DHT22;23991;52.430;10.586;2022-11-15T09:06:58;15.00;66.90
38183;DHT22;23991;52.430;10.586;2022-11-15T09:09:23;15.00;66.80
38183;DHT22;23991;52.430;10.586;2022-11-15T09:11:49;15.00;66.70
38183;DHT22;23991;52.430;10.586;2022-11-15T09:14:16;15.10;66.10
38183;DHT22;23991;52.430;10.586;2022-11-15T09:16:41;15.10;65.70
38183;DHT22;23991;52.430;10.586;2022-11-15T09:19:07;15.20;65.70
38183;DHT22;23991;52.430;10.586;2022-11-15T09:21:33;15.00;66.00
38183;DHT22;23991;52.430;10.586;2022-11-15T09:23:58;15.10;65.50
38183;DHT22;23991;52.430;10.586;2022-11-15T09:26:24;15.20;65.30
38183;DHT22;23991;52.430;10.586;2022-11-15T09:28:50;15.20;64.90
38183;DHT22;23991;52.430;10.586;2022-11-15T09:31:16;14.90;65.50
38183;DHT22;23991;52.430;10.586;2022-11-15T09:33:45;14.90;66.00
38183;DHT22;23991;52.430;10.586;2022-11-15T09:36:11;15.00;65.50
38183;DHT22;23991;52.430;10.586;2022-11-15T09:38:37;15.00;65.90
38183;DHT22;23991;52.430;10.586;2022-11-15T09:46:17;15.00;65.90
38183;DHT22;23991;52.430;10.586;2022-11-15T09:51:34;15.30;64.40
38183;DHT22;23991;52.430;10.586;2022-11-15T09:56:36;15.70;62.90
38183;DHT22;23991;52.430;10.586;2022-11-15T10:04:31;16.40;60.70
38183;DHT22;23991;52.430;10.586;2022-11-15T10:07:16;16.60;60.10
38183;DHT22;23991;52.430;10.586;2022-11-15T10:09:54;16.70;60.00
38183;DHT22;23991;52.430;10.586;2022-11-15T10:12:23;16.80;59.80
38183;DHT22;23991;52.430;10.586;2022-11-15T10:15:04;16.90;59.40
38183;DHT22;23991;52.430;10.586;2022-11-15T10:18:03;17.30;59.10
38183;DHT22;23991;52.430;10.586;2022-11-15T10:20:39;17.70;58.30
38183;DHT22;23991;52.430;10.586;2022-11-15T10:23:11;18.20;56.80
38183;DHT22;23991;52.430;10.586;2022-11-15T10:25:38;18.50;55.70
38183;DHT22;23991;52.430;10.586;2022-11-15T10:28:14;18.90;54.30
38183;DHT22;23991;52.430;10.586;2022-11-15T10:30:45;19.00;54.00
38183;DHT22;23991;52.430;10.586;2022-11-15T10:33:38;19.20;53.40
38183;DHT22;23991;52.430;10.586;2022-11-15T10:38:57;19.20;53.40
38183;DHT22;23991;52.430;10.586;2022-11-15T10:44:19;19.80;52.30
38183;DHT22;23991;52.430;10.586;2022-11-15T10:49:24;20.60;51.20
38183;DHT22;23991;52.430;10.586;2022-11-15T10:54:29;21.40;49.20
38183;DHT22;23991;52.430;10.586;2022-11-15T10:56:59;21.80;47.40
38183;DHT22;23991;52.430;10.586;2022-11-15T10:59:31;22.00;47.30
38183;DHT22;23991;52.430;10.586;2022-11-15T11:02:00;22.30;46.80
38183;DHT22;23991;52.430;10.586;2022-11-15T11:04:25;22.50;45.90
38183;DHT22;23991;52.430;10.586;2022-11-15T11:06:56;22.50;45.70
38183;DHT22;23991;52.430;10.586;2022-11-15T11:11:52;22.80;45.20
38183;DHT22;23991;52.430;10.586;2022-11-15T11:14:32;22.80;45.10
38183;DHT22;23991;52.430;10.586;2022-11-15T11:19:46;23.60;43.60
38183;DHT22;23991;52.430;10.586;2022-11-15T11:24:58;23.70;43.30
38183;DHT22;23991;52.430;10.586;2022-11-15T11:27:36;23.90;42.80
38183;DHT22;23991;52.430;10.586;2022-11-15T11:30:20;23.70;42.90
38183;DHT22;23991;52.430;10.586;2022-11-15T11:36:27;24.20;42.20
38183;DHT22;23991;52.430;10.586;2022-11-15T11:44:58;23.50;43.20
38183;DHT22;23991;52.430;10.586;2022-11-15T11:47:32;23.20;44.20
38183;DHT22;23991;52.430;10.586;2022-11-15T11:50:14;22.80;44.90
38183;DHT22;23991;52.430;10.586;2022-11-15T11:53:05;22.50;46.30
38183;DHT22;23991;52.430;10.586;2022-11-15T11:55:47;22.00;47.60
38183;DHT22;23991;52.430;10.586;2022-11-15T11:58:34;21.80;48.40
38183;DHT22;23991;52.430;10.586;2022-11-15T12:01:23;21.60;48.30
38183;DHT22;23991;52.430;10.586;2022-11-15T12:06:56;21.50;49.10
38183;DHT22;23991;52.430;10.586;2022-11-15T12:09:45;21.20;49.40
38183;DHT22;23991;52.430;10.586;2022-11-15T12:12:55;20.90;50.90
38183;DHT22;23991;52.430;10.586;2022-11-15T12:15:27;20.90;51.10
38183;DHT22;23991;52.430;10.586;2022-11-15T12:17:55;20.80;51.00
38183;DHT22;23991;52.430;10.586;2022-11-15T12:21:13;20.50;52.20
38183;DHT22;23991;52.430;10.586;2022-11-15T12:23:26;20.50;52.20
38183;DHT22;23991;52.430;10.586;2022-11-15T12:26:10;20.60;52.40
38183;DHT22;23991;52.430;10.586;2022-11-15T12:29:09;20.50;52.60
38183;DHT22;23991;52.430;10.586;2022-11-15T12:31:41;20.60;52.30
38183;DHT22;23991;52.430;10.586;2022-11-15T12:36:49;20.70;52.70
38183;DHT22;23991;52.430;10.586;2022-11-15T12:39:16;20.70;52.20
38183;DHT22;23991;52.430;10.586;2022-11-15T12:41:44;20.60;51.80
38183;DHT22;23991;52.430;10.586;2022-11-15T13:17:46;19.90;54.40
38183;DHT22;23991;52.430;10.586;2022-11-15T13:35:57;19.30;56.10
38183;DHT22;23991;52.430;10.586;2022-11-15T13:38:29;19.10;57.00
38183;DHT22;23991;52.430;10.586;2022-11-15T13:40:56;19.10;57.40
38183;DHT22;23991;52.430;10.586;2022-11-15T13:46:21;19.00;58.10
38183;DHT22;23991;52.430;10.586;2022-11-15T13:48:53;19.00;57.80
38183;DHT22;23991;52.430;10.586;2022-11-15T13:54:31;18.90;57.50
38183;DHT22;23991;52.430;10.586;2022-11-15T13:57:16;18.80;57.10
38183;DHT22;23991;52.430;10.586;2022-11-15T13:59:51;18.80;57.60
38183;DHT22;23991;52.430;10.586;2022-11-15T14:02:31;18.70;57.50
38183;DHT22;23991;52.430;10.586;2022-11-15T14:05:14;18.50;57.30
38183;DHT22;23991;52.430;10.586;2022-11-15T14:07:56;18.40;57.60
38183;DHT22;23991;52.430;10.586;2022-11-15T14:10:32;18.40;57.10
38183;DHT22;23991;52.430;10.586;2022-11-15T14:13:02;18.40;57.20
38183;DHT22;23991;52.430;10.586;2022-11-15T14:15:31;18.30;57.30
38183;DHT22;23991;52.430;10.586;2022-11-15T14:17:57;18.30;57.10
38183;DHT22;23991;52.430;10.586;2022-11-15T14:20:30;18.20;57.40
38183;DHT22;23991;52.430;10.586;2022-11-15T14:25:53;18.10;57.60
38183;DHT22;23991;52.430;10.586;2022-11-15T14:30:48;18.00;57.50
38183;DHT22;23991;52.430;10.586;2022-11-15T14:33:28;18.00;57.80
38183;DHT22;23991;52.430;10.586;2022-11-15T14:35:55;18.00;58.10
38183;DHT22;23991;52.430;10.586;2022-11-15T14:38:23;17.90;58.20
38183;DHT22;23991;52.430;10.586;2022-11-15T14:40:49;17.90;58.30
38183;DHT22;23991;52.430;10.586;2022-11-15T14:43:15;18.00;58.20
38183;DHT22;23991;52.430;10.586;2022-11-15T14:45:41;18.00;58.20
38183;DHT22;23991;52.430;10.586;2022-11-15T14:48:07;18.00;58.30
38183;DHT22;23991;52.430;10.586;2022-11-15T14:50:34;17.90;58.50
38183;DHT22;23991;52.430;10.586;2022-11-15T14:53:00;17.80;58.50
38183;DHT22;23991;52.430;10.586;2022-11-15T14:55:28;17.70;59.10
38183;DHT22;23991;52.430;10.586;2022-11-15T14:57:57;17.70;59.30
38183;DHT22;23991;52.430;10.586;2022-11-15T15:00:23;17.50;60.00
38183;DHT22;23991;52.430;10.586;2022-11-15T15:02:52;17.50;60.10
38183;DHT22;23991;52.430;10.586;2022-11-15T15:07:46;17.30;60.50
38183;DHT22;23991;52.430;10.586;2022-11-15T15:10:14;17.30;60.60
38183;DHT22;23991;52.430;10.586;2022-11-15T15:12:40;17.30;60.90
38183;DHT22;23991;52.430;10.586;2022-11-15T15:15:18;17.20;61.00
38183;DHT22;23991;52.430;10.586;2022-11-15T15:17:45;17.20;60.80
38183;DHT22;23991;52.430;10.586;2022-11-15T15:20:11;17.20;61.00
38183;DHT22;23991;52.430;10.586;2022-11-15T15:22:37;17.20;60.80
38183;DHT22;23991;52.430;10.586;2022-11-15T15:27:44;17.10;61.10
38183;DHT22;23991;52.430;10.586;2022-11-15T15:30:10;17.10;60.90
38183;DHT22;23991;52.430;10.586;2022-11-15T15:32:36;16.80;61.50
38183;DHT22;23991;52.430;10.586;2022-11-15T15:35:02;16.80;61.90
38183;DHT22;23991;52.430;10.586;2022-11-15T15:37:29;16.60;62.40
38183;DHT22;23991;52.430;10.586;2022-11-15T15:39:56;16.70;62.10
38183;DHT22;23991;52.430;10.586;2022-11-15T15:42:23;16.70;62.20
38183;DHT22;23991;52.430;10.586;2022-11-15T15:44:49;16.60;62.40
38183;DHT22;23991;52.430;10.586;2022-11-15T15:47:20;16.40;62.90
38183;DHT22;23991;52.430;10.586;2022-11-15T15:49:46;16.30;63.00
38183;DHT22;23991;52.430;10.586;2022-11-15T15:52:12;16.20;63.50
38183;DHT22;23991;52.430;10.586;2022-11-15T15:54:38;15.90;64.20
38183;DHT22;23991;52.430;10.586;2022-11-15T15:57:05;15.80;64.70
38183;DHT22;23991;52.430;10.586;2022-11-15T15:59:31;15.80;64.80
38183;DHT22;23991;52.430;10.586;2022-11-15T16:01:57;15.60;65.40
38183;DHT22;23991;52.430;10.586;2022-11-15T16:04:23;15.50;65.80
38183;DHT22;23991;52.430;10.586;2022-11-15T16:06:49;15.40;66.40
38183;DHT22;23991;52.430;10.586;2022-11-15T16:09:19;15.40;66.30
38183;DHT22;23991;52.430;10.586;2022-11-15T16:12:06;15.30;66.50
38183;DHT22;23991;52.430;10.586;2022-11-15T16:14:32;15.30;66.70
38183;DHT22;23991;52.430;10.586;2022-11-15T16:16:58;15.10;67.30
38183;DHT22;23991;52.430;10.586;2022-11-15T16:19:24;15.00;67.30
38183;DHT22;23991;52.430;10.586;2022-11-15T16:21:50;14.90;67.90
38183;DHT22;23991;52.430;10.586;2022-11-15T16:24:20;14.90;68.00
38183;DHT22;23991;52.430;10.586;2022-11-15T16:26:47;14.80;68.10
38183;DHT22;23991;52.430;10.586;2022-11-15T16:29:13;14.80;68.50
38183;DHT22;23991;52.430;10.586;2022-11-15T16:31:39;14.60;68.80
38183;DHT22;23991;52.430;10.586;2022-11-15T16:34:07;14.60;69.10
38183;DHT22;23991;52.430;10.586;2022-11-15T16:36:34;14.50;69.20
38183;DHT22;23991;52.430;10.586;2022-11-15T16:39:00;14.50;69.20
38183;DHT22;23991;52.430;10.586;2022-11-15T16:41:29;14.40;69.30
38183;DHT22;23991;52.430;10.586;2022-11-15T16:43:55;14.30;69.80
38183;DHT22;23991;52.430;10.586;2022-11-15T16:46:26;14.30;69.80
38183;DHT22;23991;52.430;10.586;2022-11-15T16:48:56;14.20;70.10
38183;DHT22;23991;52.430;10.586;2022-11-15T16:51:23;14.20;70.40
38183;DHT22;23991;52.430;10.586;2022-11-15T16:53:49;14.10;70.30
38183;DHT22;23991;52.430;10.586;2022-11-15T16:56:25;14.10;70.70
38183;DHT22;23991;52.430;10.586;2022-11-15T16:58:52;14.00;70.90
38183;DHT22;23991;52.430;10.586;2022-11-15T17:01:28;14.10;70.80
38183;DHT22;23991;52.430;10.586;2022-11-15T17:03:54;14.00;70.70
38183;DHT22;23991;52.430;10.586;2022-11-15T17:06:22;13.90;71.10
38183;DHT22;23991;52.430;10.586;2022-11-15T17:08:49;13.80;71.30
38183;DHT22;23991;52.430;10.586;2022-11-15T17:11:19;13.70;71.80
38183;DHT22;23991;52.430;10.586;2022-11-15T17:13:45;13.70;71.90
38183;DHT22;23991;52.430;10.586;2022-11-15T17:16:19;13.60;72.00
38183;DHT22;23991;52.430;10.586;2022-11-15T17:18:44;13.50;72.30
38183;DHT22;23991;52.430;10.586;2022-11-15T17:21:17;13.50;72.20
38183;DHT22;23991;52.430;10.586;2022-11-15T17:23:43;13.50;72.40
38183;DHT22;23991;52.430;10.586;2022-11-15T17:26:10;13.50;72.50
38183;DHT22;23991;52.430;10.586;2022-11-15T17:28:37;13.40;72.50
38183;DHT22;23991;52.430;10.586;2022-11-15T17:31:08;13.40;72.40
38183;DHT22;23991;52.430;10.586;2022-11-15T17:33:35;13.40;72.60
38183;DHT22;23991;52.430;10.586;2022-11-15T17:36:04;13.40;72.80
38183;DHT22;23991;52.430;10.586;2022-11-15T17:38:30;13.40;73.10
38183;DHT22;23991;52.430;10.586;2022-11-15T17:41:05;13.30;72.80
38183;DHT22;23991;52.430;10.586;2022-11-15T17:43:32;13.30;72.90
38183;DHT22;23991;52.430;10.586;2022-11-15T17:45:59;13.30;73.20
38183;DHT22;23991;52.430;10.586;2022-11-15T17:48:29;13.20;73.10
38183;DHT22;23991;52.430;10.586;2022-11-15T17:50:56;13.10;73.40
38183;DHT22;23991;52.430;10.586;2022-11-15T17:53:22;13.10;73.50
38183;DHT22;23991;52.430;10.586;2022-11-15T17:55:48;13.10;73.80
38183;DHT22;23991;52.430;10.586;2022-11-15T17:58:14;13.10;73.50
38183;DHT22;23991;52.430;10.586;2022-11-15T18:00:45;13.10;73.70